sensor_id;sensor_type;location;lat;lon;timestamp;P1;durP1;ratioP1;P2;durP2;ratioP2
54897;SDS011;40800;52.704;6.398;2023-02-21T00:00:31;78.88;;;72.28;;
54897;SDS011;40800;52.704;6.398;2023-02-21T00:03:15;77.22;;;71.07;;
54897;SDS011;40800;52.704;6.398;2023-02-21T00:06:00;78.63;;;72.20;;
54897;SDS011;40800;52.704;6.398;2023-02-21T00:08:45;79.05;;;72.60;;
54897;SDS011;40800;52.704;6.398;2023-02-21T00:11:29;80.10;;;73.18;;
54897;SDS011;40800;52.704;6.398;2023-02-21T00:14:13;75.32;;;68.57;;
54897;SDS011;40800;52.704;6.398;2023-02-21T00:16:58;74.80;;;68.53;;
54897;SDS011;40800;52.704;6.398;2023-02-21T00:19:42;73.70;;;67.40;;
54897;SDS011;40800;52.704;6.398;2023-02-21T00:22:26;72.82;;;66.93;;
54897;SDS011;40800;52.704;6.398;2023-02-21T00:25:11;74.95;;;68.28;;
54897;SDS011;40800;52.704;6.398;2023-02-21T00:27:55;73.32;;;66.93;;
54897;SDS011;40800;52.704;6.398;2023-02-21T00:30:40;72.47;;;66.40;;
54897;SDS011;40800;52.704;6.398;2023-02-21T00:33:24;69.60;;;63.78;;
54897;SDS011;40800;52.704;6.398;2023-02-21T00:36:08;73.10;;;67.38;;
54897;SDS011;40800;52.704;6.398;2023-02-21T00:38:58;69.95;;;64.28;;
54897;SDS011;40800;52.704;6.398;2023-02-21T00:41:42;71.75;;;65.55;;
54897;SDS011;40800;52.704;6.398;2023-02-21T00:44:26;71.75;;;65.82;;
54897;SDS011;40800;52.704;6.398;2023-02-21T00:47:10;67.35;;;61.40;;
54897;SDS011;40800;52.704;6.398;2023-02-21T00:49:55;65.47;;;59.65;;
54897;SDS011;40800;52.704;6.398;2023-02-21T00:52:39;66.05;;;60.13;;
54897;SDS011;40800;52.704;6.398;2023-02-21T00:55:23;66.88;;;60.95;;
54897;SDS011;40800;52.704;6.398;2023-02-21T00:58:08;66.32;;;60.33;;
54897;SDS011;40800;52.704;6.398;2023-02-21T01:00:52;65.40;;;59.60;;
54897;SDS011;40800;52.704;6.398;2023-02-21T01:03:36;64.82;;;59.17;;
54897;SDS011;40800;52.704;6.398;2023-02-21T01:06:21;68.13;;;61.95;;
54897;SDS011;40800;52.704;6.398;2023-02-21T01:09:05;66.60;;;60.15;;
54897;SDS011;40800;52.704;6.398;2023-02-21T01:11:49;66.72;;;60.92;;
54897;SDS011;40800;52.704;6.398;2023-02-21T01:14:33;66.30;;;60.20;;
54897;SDS011;40800;52.704;6.398;2023-02-21T01:17:18;65.63;;;59.67;;
54897;SDS011;40800;52.704;6.398;2023-02-21T01:20:02;66.07;;;59.97;;
54897;SDS011;40800;52.704;6.398;2023-02-21T01:22:46;67.78;;;61.42;;
54897;SDS011;40800;52.704;6.398;2023-02-21T01:25:31;75.15;;;68.90;;
54897;SDS011;40800;52.704;6.398;2023-02-21T01:28:15;73.50;;;67.20;;
54897;SDS011;40800;52.704;6.398;2023-02-21T01:30:59;76.63;;;70.20;;
54897;SDS011;40800;52.704;6.398;2023-02-21T01:33:43;78.00;;;71.18;;
54897;SDS011;40800;52.704;6.398;2023-02-21T01:36:28;76.47;;;69.68;;
54897;SDS011;40800;52.704;6.398;2023-02-21T01:39:12;79.45;;;72.88;;
54897;SDS011;40800;52.704;6.398;2023-02-21T01:41:56;75.63;;;69.50;;
54897;SDS011;40800;52.704;6.398;2023-02-21T01:44:42;79.50;;;73.05;;
54897;SDS011;40800;52.704;6.398;2023-02-21T01:47:27;77.43;;;69.97;;
54897;SDS011;40800;52.704;6.398;2023-02-21T01:53:26;72.40;;;65.53;;
54897;SDS011;40800;52.704;6.398;2023-02-21T01:56:11;76.35;;;69.80;;
54897;SDS011;40800;52.704;6.398;2023-02-21T01:58:57;70.45;;;63.95;;
54897;SDS011;40800;52.704;6.398;2023-02-21T02:01:45;68.38;;;62.45;;
54897;SDS011;40800;52.704;6.398;2023-02-21T02:04:43;71.40;;;64.93;;
54897;SDS011;40800;52.704;6.398;2023-02-21T02:07:29;72.15;;;65.78;;
54897;SDS011;40800;52.704;6.398;2023-02-21T02:10:14;72.97;;;66.65;;
54897;SDS011;40800;52.704;6.398;2023-02-21T02:15:53;74.47;;;67.90;;
54897;SDS011;40800;52.704;6.398;2023-02-21T02:24:12;74.97;;;68.18;;
54897;SDS011;40800;52.704;6.398;2023-02-21T02:27:06;76.70;;;69.55;;
54897;SDS011;40800;52.704;6.398;2023-02-21T02:35:45;81.10;;;74.22;;
54897;SDS011;40800;52.704;6.398;2023-02-21T02:38:29;83.35;;;76.10;;
54897;SDS011;40800;52.704;6.398;2023-02-21T02:41:35;78.40;;;72.00;;
54897;SDS011;40800;52.704;6.398;2023-02-21T02:46:35;76.95;;;70.32;;
54897;SDS011;40800;52.704;6.398;2023-02-21T02:49:05;75.78;;;69.00;;
54897;SDS011;40800;52.704;6.398;2023-02-21T02:51:34;77.30;;;70.38;;
54897;SDS011;40800;52.704;6.398;2023-02-21T02:54:00;76.85;;;70.18;;
54897;SDS011;40800;52.704;6.398;2023-02-21T02:56:26;75.75;;;69.30;;
54897;SDS011;40800;52.704;6.398;2023-02-21T02:59:26;74.15;;;67.65;;
54897;SDS011;40800;52.704;6.398;2023-02-21T03:10:26;72.53;;;65.75;;
54897;SDS011;40800;52.704;6.398;2023-02-21T03:16:01;71.22;;;65.18;;
54897;SDS011;40800;52.704;6.398;2023-02-21T03:21:36;76.10;;;69.18;;
54897;SDS011;40800;52.704;6.398;2023-02-21T03:24:24;70.47;;;64.15;;
54897;SDS011;40800;52.704;6.398;2023-02-21T03:26:53;71.50;;;64.78;;
54897;SDS011;40800;52.704;6.398;2023-02-21T03:29:21;72.03;;;65.45;;
54897;SDS011;40800;52.704;6.398;2023-02-21T03:31:50;74.32;;;67.43;;
54897;SDS011;40800;52.704;6.398;2023-02-21T03:34:22;78.15;;;71.43;;
54897;SDS011;40800;52.704;6.398;2023-02-21T03:36:48;77.03;;;70.22;;
54897;SDS011;40800;52.704;6.398;2023-02-21T03:39:14;73.60;;;67.07;;
54897;SDS011;40800;52.704;6.398;2023-02-21T03:41:39;76.93;;;69.72;;
54897;SDS011;40800;52.704;6.398;2023-02-21T03:44:05;72.90;;;66.43;;
54897;SDS011;40800;52.704;6.398;2023-02-21T03:46:31;74.50;;;67.80;;
54897;SDS011;40800;52.704;6.398;2023-02-21T03:48:56;73.03;;;65.97;;
54897;SDS011;40800;52.704;6.398;2023-02-21T03:51:22;76.85;;;69.90;;
54897;SDS011;40800;52.704;6.398;2023-02-21T03:53:47;79.80;;;73.03;;
54897;SDS011;40800;52.704;6.398;2023-02-21T03:56:13;80.50;;;73.38;;
54897;SDS011;40800;52.704;6.398;2023-02-21T03:58:39;75.00;;;68.28;;
54897;SDS011;40800;52.704;6.398;2023-02-21T04:01:04;71.95;;;65.13;;
54897;SDS011;40800;52.704;6.398;2023-02-21T04:03:30;75.40;;;68.28;;
54897;SDS011;40800;52.704;6.398;2023-02-21T04:05:56;76.43;;;69.85;;
54897;SDS011;40800;52.704;6.398;2023-02-21T04:08:21;80.53;;;73.35;;
54897;SDS011;40800;52.704;6.398;2023-02-21T04:10:47;75.93;;;68.78;;
54897;SDS011;40800;52.704;6.398;2023-02-21T04:13:12;77.45;;;70.43;;
54897;SDS011;40800;52.704;6.398;2023-02-21T04:15:38;79.32;;;72.47;;
54897;SDS011;40800;52.704;6.398;2023-02-21T04:18:04;76.25;;;69.22;;
54897;SDS011;40800;52.704;6.398;2023-02-21T04:20:29;78.35;;;71.03;;
54897;SDS011;40800;52.704;6.398;2023-02-21T04:22:55;76.93;;;69.85;;
54897;SDS011;40800;52.704;6.398;2023-02-21T04:25:20;79.80;;;72.03;;
54897;SDS011;40800;52.704;6.398;2023-02-21T04:27:46;85.40;;;77.90;;
54897;SDS011;40800;52.704;6.398;2023-02-21T04:30:12;88.65;;;80.57;;
54897;SDS011;40800;52.704;6.398;2023-02-21T04:32:37;80.82;;;73.65;;
54897;SDS011;40800;52.704;6.398;2023-02-21T04:35:03;80.90;;;73.45;;
54897;SDS011;40800;52.704;6.398;2023-02-21T04:37:29;80.53;;;73.70;;
54897;SDS011;40800;52.704;6.398;2023-02-21T04:39:54;82.75;;;75.47;;
54897;SDS011;40800;52.704;6.398;2023-02-21T04:42:20;78.95;;;72.25;;
54897;SDS011;40800;52.704;6.398;2023-02-21T04:44:45;77.35;;;69.93;;
54897;SDS011;40800;52.704;6.398;2023-02-21T04:47:11;78.88;;;71.65;;
54897;SDS011;40800;52.704;6.398;2023-02-21T04:49:37;78.28;;;71.07;;
54897;SDS011;40800;52.704;6.398;2023-02-21T04:52:02;75.88;;;68.78;;
54897;SDS011;40800;52.704;6.398;2023-02-21T04:54:28;83.53;;;75.57;;
54897;SDS011;40800;52.704;6.398;2023-02-21T04:56:53;85.25;;;77.25;;
54897;SDS011;40800;52.704;6.398;2023-02-21T04:59:19;84.68;;;76.57;;
54897;SDS011;40800;52.704;6.398;2023-02-21T05:01:45;82.35;;;74.45;;
54897;SDS011;40800;52.704;6.398;2023-02-21T05:04:10;93.25;;;85.05;;
54897;SDS011;40800;52.704;6.398;2023-02-21T05:06:36;101.05;;;92.32;;
54897;SDS011;40800;52.704;6.398;2023-02-21T05:09:01;88.10;;;80.07;;
54897;SDS011;40800;52.704;6.398;2023-02-21T05:11:27;80.97;;;73.50;;
54897;SDS011;40800;52.704;6.398;2023-02-21T05:13:56;84.30;;;76.57;;
54897;SDS011;40800;52.704;6.398;2023-02-21T05:16:22;80.28;;;72.63;;
54897;SDS011;40800;52.704;6.398;2023-02-21T05:18:47;81.57;;;73.40;;
54897;SDS011;40800;52.704;6.398;2023-02-21T05:21:14;83.60;;;75.10;;
54897;SDS011;40800;52.704;6.398;2023-02-21T05:23:40;82.25;;;74.63;;
54897;SDS011;40800;52.704;6.398;2023-02-21T05:26:10;80.78;;;72.93;;
54897;SDS011;40800;52.704;6.398;2023-02-21T05:28:38;79.00;;;71.65;;
54897;SDS011;40800;52.704;6.398;2023-02-21T05:31:04;84.20;;;75.78;;
54897;SDS011;40800;52.704;6.398;2023-02-21T05:33:30;84.90;;;76.70;;
54897;SDS011;40800;52.704;6.398;2023-02-21T05:35:57;89.30;;;80.82;;
54897;SDS011;40800;52.704;6.398;2023-02-21T05:38:23;84.80;;;76.97;;
54897;SDS011;40800;52.704;6.398;2023-02-21T05:40:49;84.15;;;76.18;;
54897;SDS011;40800;52.704;6.398;2023-02-21T05:43:14;86.82;;;78.22;;
54897;SDS011;40800;52.704;6.398;2023-02-21T05:45:40;86.95;;;78.75;;
54897;SDS011;40800;52.704;6.398;2023-02-21T05:48:06;87.97;;;79.90;;
54897;SDS011;40800;52.704;6.398;2023-02-21T05:50:32;85.93;;;77.80;;
54897;SDS011;40800;52.704;6.398;2023-02-21T05:52:58;86.82;;;78.15;;
54897;SDS011;40800;52.704;6.398;2023-02-21T05:55:24;87.35;;;79.05;;
54897;SDS011;40800;52.704;6.398;2023-02-21T05:57:50;84.88;;;76.65;;
54897;SDS011;40800;52.704;6.398;2023-02-21T06:00:24;89.38;;;80.78;;
54897;SDS011;40800;52.704;6.398;2023-02-21T06:02:52;87.95;;;80.25;;
54897;SDS011;40800;52.704;6.398;2023-02-21T06:05:19;89.05;;;80.32;;
54897;SDS011;40800;52.704;6.398;2023-02-21T06:07:45;91.45;;;82.25;;
54897;SDS011;40800;52.704;6.398;2023-02-21T06:10:11;90.97;;;82.70;;
54897;SDS011;40800;52.704;6.398;2023-02-21T06:12:38;92.63;;;84.13;;
54897;SDS011;40800;52.704;6.398;2023-02-21T06:15:03;100.63;;;91.35;;
54897;SDS011;40800;52.704;6.398;2023-02-21T06:17:31;92.40;;;83.28;;
54897;SDS011;40800;52.704;6.398;2023-02-21T06:19:57;92.57;;;83.55;;
54897;SDS011;40800;52.704;6.398;2023-02-21T06:22:23;93.93;;;85.10;;
54897;SDS011;40800;52.704;6.398;2023-02-21T06:24:49;92.53;;;83.50;;
54897;SDS011;40800;52.704;6.398;2023-02-21T06:27:15;97.55;;;88.72;;
54897;SDS011;40800;52.704;6.398;2023-02-21T06:29:40;98.05;;;89.32;;
54897;SDS011;40800;52.704;6.398;2023-02-21T06:32:06;98.00;;;89.30;;
54897;SDS011;40800;52.704;6.398;2023-02-21T06:34:32;101.60;;;92.38;;
54897;SDS011;40800;52.704;6.398;2023-02-21T06:36:58;99.88;;;90.95;;
54897;SDS011;40800;52.704;6.398;2023-02-21T06:39:23;103.65;;;94.45;;
54897;SDS011;40800;52.704;6.398;2023-02-21T06:41:49;107.68;;;98.18;;
54897;SDS011;40800;52.704;6.398;2023-02-21T06:44:15;100.15;;;90.68;;
54897;SDS011;40800;52.704;6.398;2023-02-21T06:46:41;99.72;;;90.05;;
54897;SDS011;40800;52.704;6.398;2023-02-21T06:49:07;98.85;;;89.30;;
54897;SDS011;40800;52.704;6.398;2023-02-21T06:51:34;96.93;;;87.80;;
54897;SDS011;40800;52.704;6.398;2023-02-21T06:56:26;99.30;;;89.90;;
54897;SDS011;40800;52.704;6.398;2023-02-21T06:58:52;98.57;;;89.68;;
54897;SDS011;40800;52.704;6.398;2023-02-21T07:01:18;100.55;;;90.85;;
54897;SDS011;40800;52.704;6.398;2023-02-21T07:03:43;97.75;;;87.65;;
54897;SDS011;40800;52.704;6.398;2023-02-21T07:06:10;103.70;;;93.93;;
54897;SDS011;40800;52.704;6.398;2023-02-21T07:08:36;99.30;;;89.93;;
54897;SDS011;40800;52.704;6.398;2023-02-21T07:11:02;93.07;;;84.30;;
54897;SDS011;40800;52.704;6.398;2023-02-21T07:13:28;96.13;;;86.60;;
54897;SDS011;40800;52.704;6.398;2023-02-21T07:15:53;91.35;;;82.57;;
54897;SDS011;40800;52.704;6.398;2023-02-21T07:18:19;92.50;;;82.78;;
54897;SDS011;40800;52.704;6.398;2023-02-21T07:20:44;85.85;;;77.35;;
54897;SDS011;40800;52.704;6.398;2023-02-21T07:23:10;86.38;;;77.22;;
54897;SDS011;40800;52.704;6.398;2023-02-21T07:25:36;88.32;;;79.15;;
54897;SDS011;40800;52.704;6.398;2023-02-21T07:28:01;86.22;;;77.10;;
54897;SDS011;40800;52.704;6.398;2023-02-21T07:30:28;162.88;;;150.18;;
54897;SDS011;40800;52.704;6.398;2023-02-21T07:32:53;88.75;;;79.68;;
54897;SDS011;40800;52.704;6.398;2023-02-21T07:35:19;87.70;;;78.28;;
54897;SDS011;40800;52.704;6.398;2023-02-21T07:37:45;87.40;;;78.32;;
54897;SDS011;40800;52.704;6.398;2023-02-21T07:40:10;86.57;;;77.55;;
54897;SDS011;40800;52.704;6.398;2023-02-21T07:42:36;87.75;;;78.72;;
54897;SDS011;40800;52.704;6.398;2023-02-21T07:45:07;90.35;;;80.60;;
54897;SDS011;40800;52.704;6.398;2023-02-21T07:47:34;86.07;;;77.20;;
54897;SDS011;40800;52.704;6.398;2023-02-21T07:49:59;85.35;;;75.82;;
54897;SDS011;40800;52.704;6.398;2023-02-21T07:52:25;84.30;;;75.82;;
54897;SDS011;40800;52.704;6.398;2023-02-21T07:54:51;87.13;;;77.85;;
54897;SDS011;40800;52.704;6.398;2023-02-21T07:57:17;86.18;;;76.85;;
54897;SDS011;40800;52.704;6.398;2023-02-21T07:59:43;86.13;;;77.20;;
54897;SDS011;40800;52.704;6.398;2023-02-21T08:02:12;85.00;;;75.82;;
54897;SDS011;40800;52.704;6.398;2023-02-21T08:04:39;88.43;;;78.10;;
54897;SDS011;40800;52.704;6.398;2023-02-21T08:07:05;87.15;;;77.80;;
54897;SDS011;40800;52.704;6.398;2023-02-21T08:09:31;86.70;;;77.35;;
54897;SDS011;40800;52.704;6.398;2023-02-21T08:11:57;87.22;;;77.93;;
54897;SDS011;40800;52.704;6.398;2023-02-21T08:14:23;88.50;;;78.40;;
54897;SDS011;40800;52.704;6.398;2023-02-21T08:16:49;89.00;;;77.95;;
54897;SDS011;40800;52.704;6.398;2023-02-21T08:19:14;87.95;;;76.18;;
54897;SDS011;40800;52.704;6.398;2023-02-21T08:21:47;86.47;;;76.80;;
54897;SDS011;40800;52.704;6.398;2023-02-21T08:24:14;85.57;;;76.40;;
54897;SDS011;40800;52.704;6.398;2023-02-21T08:26:41;92.15;;;81.07;;
54897;SDS011;40800;52.704;6.398;2023-02-21T08:29:09;91.78;;;78.88;;
54897;SDS011;40800;52.704;6.398;2023-02-21T08:31:38;88.90;;;79.18;;
54897;SDS011;40800;52.704;6.398;2023-02-21T08:34:04;93.28;;;78.57;;
54897;SDS011;40800;52.704;6.398;2023-02-21T08:36:32;89.20;;;79.68;;
54897;SDS011;40800;52.704;6.398;2023-02-21T08:39:06;91.03;;;80.75;;
54897;SDS011;40800;52.704;6.398;2023-02-21T08:41:39;90.35;;;80.40;;
54897;SDS011;40800;52.704;6.398;2023-02-21T08:44:06;90.38;;;80.57;;
54897;SDS011;40800;52.704;6.398;2023-02-21T08:46:33;94.00;;;82.40;;
54897;SDS011;40800;52.704;6.398;2023-02-21T08:48:59;89.57;;;79.40;;
54897;SDS011;40800;52.704;6.398;2023-02-21T08:51:26;90.68;;;80.93;;
54897;SDS011;40800;52.704;6.398;2023-02-21T08:53:53;91.47;;;80.07;;
54897;SDS011;40800;52.704;6.398;2023-02-21T08:56:19;91.90;;;81.88;;
54897;SDS011;40800;52.704;6.398;2023-02-21T08:58:46;87.82;;;77.97;;
54897;SDS011;40800;52.704;6.398;2023-02-21T09:01:12;94.50;;;80.75;;
54897;SDS011;40800;52.704;6.398;2023-02-21T09:03:38;94.20;;;79.75;;
54897;SDS011;40800;52.704;6.398;2023-02-21T09:06:04;94.60;;;80.18;;
54897;SDS011;40800;52.704;6.398;2023-02-21T09:08:30;91.28;;;78.60;;
54897;SDS011;40800;52.704;6.398;2023-02-21T09:10:56;91.07;;;80.80;;
54897;SDS011;40800;52.704;6.398;2023-02-21T09:13:28;93.03;;;80.75;;
54897;SDS011;40800;52.704;6.398;2023-02-21T09:15:56;94.90;;;82.53;;
54897;SDS011;40800;52.704;6.398;2023-02-21T09:18:23;91.28;;;79.80;;
54897;SDS011;40800;52.704;6.398;2023-02-21T09:20:50;95.90;;;78.90;;
54897;SDS011;40800;52.704;6.398;2023-02-21T09:23:17;91.90;;;81.15;;
54897;SDS011;40800;52.704;6.398;2023-02-21T09:25:44;88.63;;;78.38;;
54897;SDS011;40800;52.704;6.398;2023-02-21T09:28:10;89.33;;;79.23;;
54897;SDS011;40800;52.704;6.398;2023-02-21T09:30:36;87.35;;;78.07;;
54897;SDS011;40800;52.704;6.398;2023-02-21T09:33:02;90.57;;;79.13;;
54897;SDS011;40800;52.704;6.398;2023-02-21T09:35:27;88.38;;;78.90;;
54897;SDS011;40800;52.704;6.398;2023-02-21T09:37:57;87.22;;;77.95;;
54897;SDS011;40800;52.704;6.398;2023-02-21T09:40:35;85.65;;;76.43;;
54897;SDS011;40800;52.704;6.398;2023-02-21T09:43:11;84.07;;;75.20;;
54897;SDS011;40800;52.704;6.398;2023-02-21T09:45:41;89.22;;;79.72;;
54897;SDS011;40800;52.704;6.398;2023-02-21T09:48:16;87.72;;;78.20;;
54897;SDS011;40800;52.704;6.398;2023-02-21T09:50:53;85.80;;;76.72;;
54897;SDS011;40800;52.704;6.398;2023-02-21T09:53:39;85.93;;;76.88;;
54897;SDS011;40800;52.704;6.398;2023-02-21T09:58:55;86.60;;;77.60;;
54897;SDS011;40800;52.704;6.398;2023-02-21T10:07:17;86.15;;;77.30;;
54897;SDS011;40800;52.704;6.398;2023-02-21T10:15:44;82.97;;;74.63;;
54897;SDS011;40800;52.704;6.398;2023-02-21T10:18:26;86.57;;;77.28;;
54897;SDS011;40800;52.704;6.398;2023-02-21T10:21:00;90.57;;;81.22;;
54897;SDS011;40800;52.704;6.398;2023-02-21T10:26:12;86.47;;;77.60;;
54897;SDS011;40800;52.704;6.398;2023-02-21T10:28:44;86.60;;;77.72;;
54897;SDS011;40800;52.704;6.398;2023-02-21T10:31:22;85.15;;;76.63;;
54897;SDS011;40800;52.704;6.398;2023-02-21T10:33:59;88.35;;;79.30;;
54897;SDS011;40800;52.704;6.398;2023-02-21T10:36:25;83.80;;;75.15;;
54897;SDS011;40800;52.704;6.398;2023-02-21T10:38:56;85.72;;;77.07;;
54897;SDS011;40800;52.704;6.398;2023-02-21T10:41:26;84.30;;;75.90;;
54897;SDS011;40800;52.704;6.398;2023-02-21T10:43:59;85.07;;;76.20;;
54897;SDS011;40800;52.704;6.398;2023-02-21T10:49:58;87.13;;;77.80;;
54897;SDS011;40800;52.704;6.398;2023-02-21T10:52:28;86.43;;;77.40;;
54897;SDS011;40800;52.704;6.398;2023-02-21T10:55:14;85.95;;;77.25;;
54897;SDS011;40800;52.704;6.398;2023-02-21T10:57:42;86.53;;;77.20;;
54897;SDS011;40800;52.704;6.398;2023-02-21T11:00:22;85.63;;;76.97;;
54897;SDS011;40800;52.704;6.398;2023-02-21T11:02:48;86.40;;;77.60;;
54897;SDS011;40800;52.704;6.398;2023-02-21T11:05:26;86.97;;;77.97;;
54897;SDS011;40800;52.704;6.398;2023-02-21T11:07:57;87.25;;;78.38;;
54897;SDS011;40800;52.704;6.398;2023-02-21T11:15:47;84.28;;;75.97;;
54897;SDS011;40800;52.704;6.398;2023-02-21T11:18:30;83.85;;;75.55;;
54897;SDS011;40800;52.704;6.398;2023-02-21T11:20:56;81.68;;;73.60;;
54897;SDS011;40800;52.704;6.398;2023-02-21T11:24:01;82.85;;;74.60;;
54897;SDS011;40800;52.704;6.398;2023-02-21T11:26:28;87.05;;;78.10;;
54897;SDS011;40800;52.704;6.398;2023-02-21T11:29:06;85.78;;;76.75;;
54897;SDS011;40800;52.704;6.398;2023-02-21T11:31:35;84.68;;;75.72;;
54897;SDS011;40800;52.704;6.398;2023-02-21T11:34:02;84.18;;;75.80;;
54897;SDS011;40800;52.704;6.398;2023-02-21T11:36:31;84.55;;;75.88;;
54897;SDS011;40800;52.704;6.398;2023-02-21T11:44:22;84.68;;;76.00;;
54897;SDS011;40800;52.704;6.398;2023-02-21T11:46:54;84.82;;;75.85;;
54897;SDS011;40800;52.704;6.398;2023-02-21T11:52:31;86.13;;;77.47;;
54897;SDS011;40800;52.704;6.398;2023-02-21T11:54:57;83.22;;;74.43;;
54897;SDS011;40800;52.704;6.398;2023-02-21T12:00:38;83.93;;;75.53;;
54897;SDS011;40800;52.704;6.398;2023-02-21T12:03:32;85.47;;;77.00;;
54897;SDS011;40800;52.704;6.398;2023-02-21T12:09:06;88.22;;;77.65;;
54897;SDS011;40800;52.704;6.398;2023-02-21T12:22:58;90.75;;;81.03;;
54897;SDS011;40800;52.704;6.398;2023-02-21T12:25:45;89.50;;;79.82;;
54897;SDS011;40800;52.704;6.398;2023-02-21T12:31:32;90.05;;;80.45;;
54897;SDS011;40800;52.704;6.398;2023-02-21T12:39:27;93.07;;;82.93;;
54897;SDS011;40800;52.704;6.398;2023-02-21T12:48:16;107.53;;;89.95;;
54897;SDS011;40800;52.704;6.398;2023-02-21T12:50:51;108.43;;;89.53;;
54897;SDS011;40800;52.704;6.398;2023-02-21T12:53:21;104.50;;;89.00;;
54897;SDS011;40800;52.704;6.398;2023-02-21T12:55:54;106.20;;;89.50;;
54897;SDS011;40800;52.704;6.398;2023-02-21T12:58:53;109.28;;;90.47;;
54897;SDS011;40800;52.704;6.398;2023-02-21T13:01:33;109.38;;;90.00;;
54897;SDS011;40800;52.704;6.398;2023-02-21T13:04:21;111.60;;;92.18;;
54897;SDS011;40800;52.704;6.398;2023-02-21T13:06:59;107.57;;;90.97;;
54897;SDS011;40800;52.704;6.398;2023-02-21T13:10:06;118.68;;;96.65;;
54897;SDS011;40800;52.704;6.398;2023-02-21T13:15:18;103.30;;;91.38;;
54897;SDS011;40800;52.704;6.398;2023-02-21T13:17:50;114.40;;;93.80;;
54897;SDS011;40800;52.704;6.398;2023-02-21T13:20:23;108.43;;;91.15;;
54897;SDS011;40800;52.704;6.398;2023-02-21T13:22:55;109.10;;;91.32;;
54897;SDS011;40800;52.704;6.398;2023-02-21T13:25:37;106.53;;;92.15;;
54897;SDS011;40800;52.704;6.398;2023-02-21T13:28:14;105.80;;;91.68;;
54897;SDS011;40800;52.704;6.398;2023-02-21T13:30:54;109.88;;;90.10;;
54897;SDS011;40800;52.704;6.398;2023-02-21T13:35:57;99.90;;;88.90;;
54897;SDS011;40800;52.704;6.398;2023-02-21T13:38:25;107.20;;;90.45;;
54897;SDS011;40800;52.704;6.398;2023-02-21T13:41:01;103.70;;;90.78;;
54897;SDS011;40800;52.704;6.398;2023-02-21T13:43:28;104.65;;;88.78;;
54897;SDS011;40800;52.704;6.398;2023-02-21T13:49:31;109.40;;;91.60;;
54897;SDS011;40800;52.704;6.398;2023-02-21T13:51:50;105.03;;;91.40;;
54897;SDS011;40800;52.704;6.398;2023-02-21T13:54:21;104.97;;;91.28;;
54897;SDS011;40800;52.704;6.398;2023-02-21T13:56:48;107.55;;;91.93;;
54897;SDS011;40800;52.704;6.398;2023-02-21T14:01:50;105.32;;;91.30;;
54897;SDS011;40800;52.704;6.398;2023-02-21T14:07:14;110.15;;;98.85;;
54897;SDS011;40800;52.704;6.398;2023-02-21T14:09:40;108.13;;;96.85;;
54897;SDS011;40800;52.704;6.398;2023-02-21T14:12:06;114.03;;;101.85;;
54897;SDS011;40800;52.704;6.398;2023-02-21T14:14:37;111.55;;;99.65;;
54897;SDS011;40800;52.704;6.398;2023-02-21T14:17:05;111.72;;;99.72;;
54897;SDS011;40800;52.704;6.398;2023-02-21T14:19:36;112.85;;;100.70;;
54897;SDS011;40800;52.704;6.398;2023-02-21T14:22:10;118.90;;;103.13;;
54897;SDS011;40800;52.704;6.398;2023-02-21T14:24:42;114.90;;;102.22;;
54897;SDS011;40800;52.704;6.398;2023-02-21T14:43:09;114.00;;;99.38;;
54897;SDS011;40800;52.704;6.398;2023-02-21T14:45:57;123.75;;;98.30;;
54897;SDS011;40800;52.704;6.398;2023-02-21T14:48:38;126.65;;;105.43;;
54897;SDS011;40800;52.704;6.398;2023-02-21T14:59:17;120.53;;;100.60;;
54897;SDS011;40800;52.704;6.398;2023-02-21T15:02:32;125.85;;;98.65;;
54897;SDS011;40800;52.704;6.398;2023-02-21T15:08:21;112.65;;;95.10;;
54897;SDS011;40800;52.704;6.398;2023-02-21T15:10:49;122.78;;;101.82;;
54897;SDS011;40800;52.704;6.398;2023-02-21T15:15:58;114.28;;;94.95;;
54897;SDS011;40800;52.704;6.398;2023-02-21T15:18:39;111.97;;;98.25;;
54897;SDS011;40800;52.704;6.398;2023-02-21T15:21:26;116.38;;;97.10;;
54897;SDS011;40800;52.704;6.398;2023-02-21T15:26:47;116.90;;;95.78;;
54897;SDS011;40800;52.704;6.398;2023-02-21T15:29:16;109.25;;;94.05;;
54897;SDS011;40800;52.704;6.398;2023-02-21T15:31:50;117.18;;;95.32;;
54897;SDS011;40800;52.704;6.398;2023-02-21T15:37:03;119.93;;;96.00;;
54897;SDS011;40800;52.704;6.398;2023-02-21T15:39:43;121.97;;;97.40;;
54897;SDS011;40800;52.704;6.398;2023-02-21T15:42:13;116.47;;;94.25;;
54897;SDS011;40800;52.704;6.398;2023-02-21T15:44:43;179.73;;;163.75;;
54897;SDS011;40800;52.704;6.398;2023-02-21T15:47:15;122.55;;;96.65;;
54897;SDS011;40800;52.704;6.398;2023-02-21T15:50:01;118.38;;;97.75;;
54897;SDS011;40800;52.704;6.398;2023-02-21T15:52:38;124.28;;;97.10;;
54897;SDS011;40800;52.704;6.398;2023-02-21T16:00:32;116.50;;;94.53;;
54897;SDS011;40800;52.704;6.398;2023-02-21T16:06:06;128.23;;;95.65;;
54897;SDS011;40800;52.704;6.398;2023-02-21T16:08:32;128.02;;;94.15;;
54897;SDS011;40800;52.704;6.398;2023-02-21T16:11:02;131.98;;;99.00;;
54897;SDS011;40800;52.704;6.398;2023-02-21T16:13:37;128.98;;;96.97;;
54897;SDS011;40800;52.704;6.398;2023-02-21T16:16:04;170.07;;;153.48;;
54897;SDS011;40800;52.704;6.398;2023-02-21T16:18:31;129.38;;;92.95;;
54897;SDS011;40800;52.704;6.398;2023-02-21T16:20:58;125.65;;;93.53;;
54897;SDS011;40800;52.704;6.398;2023-02-21T16:23:37;115.57;;;89.55;;
54897;SDS011;40800;52.704;6.398;2023-02-21T16:28:34;121.47;;;92.38;;
54897;SDS011;40800;52.704;6.398;2023-02-21T16:31:01;117.63;;;93.32;;
54897;SDS011;40800;52.704;6.398;2023-02-21T16:33:29;119.40;;;96.28;;
54897;SDS011;40800;52.704;6.398;2023-02-21T16:35:55;127.82;;;97.97;;
54897;SDS011;40800;52.704;6.398;2023-02-21T16:38:23;116.50;;;95.30;;
54897;SDS011;40800;52.704;6.398;2023-02-21T16:40:49;113.32;;;95.43;;
54897;SDS011;40800;52.704;6.398;2023-02-21T16:43:26;110.65;;;91.72;;
54897;SDS011;40800;52.704;6.398;2023-02-21T16:45:54;104.70;;;90.30;;
54897;SDS011;40800;52.704;6.398;2023-02-21T16:48:28;106.47;;;92.22;;
54897;SDS011;40800;52.704;6.398;2023-02-21T16:50:57;114.63;;;98.85;;
54897;SDS011;40800;52.704;6.398;2023-02-21T16:53:26;114.22;;;99.97;;
54897;SDS011;40800;52.704;6.398;2023-02-21T16:55:51;115.25;;;102.63;;
54897;SDS011;40800;52.704;6.398;2023-02-21T16:58:19;110.47;;;97.30;;
54897;SDS011;40800;52.704;6.398;2023-02-21T17:00:51;117.25;;;105.03;;
54897;SDS011;40800;52.704;6.398;2023-02-21T17:03:18;119.10;;;107.07;;
54897;SDS011;40800;52.704;6.398;2023-02-21T17:05:44;118.53;;;106.32;;
54897;SDS011;40800;52.704;6.398;2023-02-21T17:08:09;118.22;;;105.88;;
54897;SDS011;40800;52.704;6.398;2023-02-21T17:10:35;112.78;;;100.97;;
54897;SDS011;40800;52.704;6.398;2023-02-21T17:13:01;113.90;;;102.43;;
54897;SDS011;40800;52.704;6.398;2023-02-21T17:15:27;111.90;;;100.63;;
54897;SDS011;40800;52.704;6.398;2023-02-21T17:17:53;119.13;;;107.15;;
54897;SDS011;40800;52.704;6.398;2023-02-21T17:20:19;117.32;;;105.45;;
54897;SDS011;40800;52.704;6.398;2023-02-21T17:25:12;105.00;;;85.47;;
54897;SDS011;40800;52.704;6.398;2023-02-21T17:27:38;98.88;;;80.97;;
54897;SDS011;40800;52.704;6.398;2023-02-21T17:30:04;103.15;;;82.32;;
54897;SDS011;40800;52.704;6.398;2023-02-21T17:32:30;97.45;;;79.18;;